sensor_id;sensor_type;location;lat;lon;timestamp;pressure;altitude;pressure_sealevel;temperature;humidity
66479;BME280;53294;47.912;13.526;2022-07-23T00:00:15;96214.56;;;22.79;66.60
66479;BME280;53294;47.912;13.526;2022-07-23T00:02:42;96220.03;;;22.79;65.62
66479;BME280;53294;47.912;13.526;2022-07-23T00:05:09;96221.81;;;22.98;63.76
66479;BME280;53294;47.912;13.526;2022-07-23T00:07:36;96243.00;;;22.67;65.58
66479;BME280;53294;47.912;13.526;2022-07-23T00:10:04;96237.75;;;22.55;64.45
66479;BME280;53294;47.912;13.526;2022-07-23T00:12:31;96227.06;;;22.76;63.63
66479;BME280;53294;47.912;13.526;2022-07-23T00:14:57;96215.50;;;22.94;63.34
66479;BME280;53294;47.912;13.526;2022-07-23T00:17:24;96217.09;;;23.33;62.33
66479;BME280;53294;47.912;13.526;2022-07-23T00:19:51;96220.34;;;23.45;61.30
66479;BME280;53294;47.912;13.526;2022-07-23T00:22:20;96225.59;;;23.65;60.74
66479;BME280;53294;47.912;13.526;2022-07-23T00:24:47;96210.41;;;23.78;61.28
66479;BME280;53294;47.912;13.526;2022-07-23T00:27:33;96194.06;;;23.89;58.76
66479;BME280;53294;47.912;13.526;2022-07-23T00:30:00;96207.63;;;23.71;60.90
66479;BME280;53294;47.912;13.526;2022-07-23T00:32:27;96236.22;;;23.74;61.97
66479;BME280;53294;47.912;13.526;2022-07-23T00:35:14;96229.41;;;23.53;60.88
66479;BME280;53294;47.912;13.526;2022-07-23T00:37:40;96222.38;;;23.56;61.03
66479;BME280;53294;47.912;13.526;2022-07-23T00:40:08;96215.78;;;23.64;60.48
66479;BME280;53294;47.912;13.526;2022-07-23T00:42:35;96234.66;;;23.24;61.79
66479;BME280;53294;47.912;13.526;2022-07-23T00:45:01;96219.00;;;23.25;60.48
66479;BME280;53294;47.912;13.526;2022-07-23T00:47:28;96224.56;;;22.98;60.63
66479;BME280;53294;47.912;13.526;2022-07-23T00:49:55;96214.25;;;23.22;59.73
66479;BME280;53294;47.912;13.526;2022-07-23T00:52:22;96215.16;;;23.37;59.04
66479;BME280;53294;47.912;13.526;2022-07-23T00:54:49;96209.66;;;23.33;58.91
66479;BME280;53294;47.912;13.526;2022-07-23T00:57:16;96210.28;;;23.16;59.09
66479;BME280;53294;47.912;13.526;2022-07-23T00:59:43;96205.16;;;22.76;60.26
66479;BME280;53294;47.912;13.526;2022-07-23T01:02:10;96185.00;;;22.92;59.90
66479;BME280;53294;47.912;13.526;2022-07-23T01:04:37;96180.19;;;22.82;60.47
66479;BME280;53294;47.912;13.526;2022-07-23T01:07:03;96191.03;;;22.74;60.35
66479;BME280;53294;47.912;13.526;2022-07-23T01:09:31;96195.56;;;22.56;61.40
66479;BME280;53294;47.912;13.526;2022-07-23T01:11:58;96183.06;;;22.58;60.63
66479;BME280;53294;47.912;13.526;2022-07-23T01:14:25;96169.69;;;22.50;61.06
66479;BME280;53294;47.912;13.526;2022-07-23T01:16:53;96175.47;;;22.79;59.61
66479;BME280;53294;47.912;13.526;2022-07-23T01:19:20;96181.16;;;23.00;59.00
66479;BME280;53294;47.912;13.526;2022-07-23T01:21:49;96193.34;;;23.06;59.16
66479;BME280;53294;47.912;13.526;2022-07-23T01:24:16;96194.81;;;22.97;59.02
66479;BME280;53294;47.912;13.526;2022-07-23T01:26:47;96174.84;;;22.96;58.81
66479;BME280;53294;47.912;13.526;2022-07-23T01:29:14;96167.19;;;23.09;58.72
66479;BME280;53294;47.912;13.526;2022-07-23T01:31:42;96160.69;;;23.24;57.67
66479;BME280;53294;47.912;13.526;2022-07-23T01:34:09;96148.91;;;23.24;58.08
66479;BME280;53294;47.912;13.526;2022-07-23T01:36:37;96139.13;;;23.23;57.75
66479;BME280;53294;47.912;13.526;2022-07-23T01:39:05;96148.97;;;23.31;57.10
66479;BME280;53294;47.912;13.526;2022-07-23T01:41:32;96150.03;;;23.19;58.04
66479;BME280;53294;47.912;13.526;2022-07-23T01:44:01;96150.81;;;23.16;58.27
66479;BME280;53294;47.912;13.526;2022-07-23T01:46:27;96162.22;;;23.25;57.38
66479;BME280;53294;47.912;13.526;2022-07-23T01:48:54;96159.66;;;23.43;56.66
66479;BME280;53294;47.912;13.526;2022-07-23T01:51:21;96159.69;;;23.51;56.04
66479;BME280;53294;47.912;13.526;2022-07-23T01:53:48;96158.91;;;23.54;56.35
66479;BME280;53294;47.912;13.526;2022-07-23T01:56:14;96151.16;;;23.59;56.32
66479;BME280;53294;47.912;13.526;2022-07-23T01:58:41;96144.13;;;23.65;56.26
66479;BME280;53294;47.912;13.526;2022-07-23T02:01:08;96143.38;;;23.72;55.61
66479;BME280;53294;47.912;13.526;2022-07-23T02:03:35;96146.50;;;23.67;56.76
66479;BME280;53294;47.912;13.526;2022-07-23T02:06:02;96141.06;;;23.74;56.08
66479;BME280;53294;47.912;13.526;2022-07-23T02:08:29;96141.00;;;23.67;57.16
66479;BME280;53294;47.912;13.526;2022-07-23T02:10:55;96144.97;;;23.70;56.37
66479;BME280;53294;47.912;13.526;2022-07-23T02:13:22;96144.16;;;23.69;56.37
66479;BME280;53294;47.912;13.526;2022-07-23T02:15:48;96147.56;;;23.52;57.53
66479;BME280;53294;47.912;13.526;2022-07-23T02:18:15;96155.09;;;23.62;57.08
66479;BME280;53294;47.912;13.526;2022-07-23T02:20:42;96157.41;;;23.60;57.46
66479;BME280;53294;47.912;13.526;2022-07-23T02:23:11;96162.03;;;23.48;57.97
66479;BME280;53294;47.912;13.526;2022-07-23T02:25:37;96162.09;;;23.56;56.91
66479;BME280;53294;47.912;13.526;2022-07-23T02:28:04;96161.28;;;23.52;56.67
66479;BME280;53294;47.912;13.526;2022-07-23T02:30:31;96159.75;;;23.58;56.31
66479;BME280;53294;47.912;13.526;2022-07-23T02:32:57;96165.06;;;23.36;57.98
66479;BME280;53294;47.912;13.526;2022-07-23T02:35:24;96168.28;;;23.45;57.68
66479;BME280;53294;47.912;13.526;2022-07-23T02:37:51;96179.16;;;23.38;57.71
66479;BME280;53294;47.912;13.526;2022-07-23T02:40:18;96176.66;;;23.19;58.14
66479;BME280;53294;47.912;13.526;2022-07-23T02:42:44;96182.97;;;23.23;58.47
66479;BME280;53294;47.912;13.526;2022-07-23T02:45:12;96182.13;;;23.15;58.82
66479;BME280;53294;47.912;13.526;2022-07-23T02:47:39;96177.50;;;23.23;58.23
66479;BME280;53294;47.912;13.526;2022-07-23T02:50:06;96182.13;;;23.15;58.64
66479;BME280;53294;47.912;13.526;2022-07-23T02:52:33;96183.72;;;23.20;58.57
66479;BME280;53294;47.912;13.526;2022-07-23T02:55:00;96201.03;;;23.31;58.72
66479;BME280;53294;47.912;13.526;2022-07-23T02:57:26;96203.41;;;23.36;57.67
66479;BME280;53294;47.912;13.526;2022-07-23T02:59:53;96202.28;;;23.37;57.71
66479;BME280;53294;47.912;13.526;2022-07-23T03:02:20;96203.06;;;23.41;57.21
66479;BME280;53294;47.912;13.526;2022-07-23T03:04:46;96204.09;;;22.88;60.95
66479;BME280;53294;47.912;13.526;2022-07-23T03:07:13;96220.91;;;22.87;60.26
66479;BME280;53294;47.912;13.526;2022-07-23T03:09:40;96239.75;;;22.92;60.58
66479;BME280;53294;47.912;13.526;2022-07-23T03:12:07;96238.19;;;22.94;60.18
66479;BME280;53294;47.912;13.526;2022-07-23T03:14:39;96258.66;;;22.70;60.54
66479;BME280;53294;47.912;13.526;2022-07-23T03:17:06;96264.44;;;22.65;61.33
66479;BME280;53294;47.912;13.526;2022-07-23T03:19:33;96285.19;;;22.66;60.88
66479;BME280;53294;47.912;13.526;2022-07-23T03:21:59;96302.50;;;22.44;61.49
66479;BME280;53294;47.912;13.526;2022-07-23T03:24:26;96348.88;;;22.10;62.17
66479;BME280;53294;47.912;13.526;2022-07-23T03:27:13;96340.84;;;21.97;61.68
66479;BME280;53294;47.912;13.526;2022-07-23T03:29:39;96359.91;;;22.17;60.70
66479;BME280;53294;47.912;13.526;2022-07-23T03:32:06;96360.63;;;22.14;60.61
66479;BME280;53294;47.912;13.526;2022-07-23T03:34:33;96361.50;;;22.18;59.96
66479;BME280;53294;47.912;13.526;2022-07-23T03:37:00;96362.59;;;22.13;58.57
66479;BME280;53294;47.912;13.526;2022-07-23T03:39:28;96372.13;;;22.00;58.63
66479;BME280;53294;47.912;13.526;2022-07-23T03:41:55;96365.19;;;22.06;58.35
66479;BME280;53294;47.912;13.526;2022-07-23T03:44:22;96381.56;;;22.02;58.43
66479;BME280;53294;47.912;13.526;2022-07-23T03:46:49;96384.69;;;22.04;58.75
66479;BME280;53294;47.912;13.526;2022-07-23T03:49:15;96382.03;;;22.08;58.39
66479;BME280;53294;47.912;13.526;2022-07-23T03:51:42;96388.09;;;22.21;57.51
66479;BME280;53294;47.912;13.526;2022-07-23T03:54:09;96391.25;;;22.23;57.78
66479;BME280;53294;47.912;13.526;2022-07-23T03:56:36;96392.84;;;22.24;56.99
66479;BME280;53294;47.912;13.526;2022-07-23T03:59:03;96399.53;;;22.27;57.16
66479;BME280;53294;47.912;13.526;2022-07-23T04:01:30;96413.88;;;22.20;56.99
66479;BME280;53294;47.912;13.526;2022-07-23T04:03:58;96426.38;;;22.40;56.78
66479;BME280;53294;47.912;13.526;2022-07-23T04:06:24;96420.94;;;22.44;56.31
66479;BME280;53294;47.912;13.526;2022-07-23T04:08:51;96425.81;;;22.54;56.19
66479;BME280;53294;47.912;13.526;2022-07-23T04:11:18;96418.59;;;22.69;55.53
66479;BME280;53294;47.912;13.526;2022-07-23T04:13:44;96415.13;;;22.72;55.06
66479;BME280;53294;47.912;13.526;2022-07-23T04:16:12;96408.56;;;22.81;54.88
66479;BME280;53294;47.912;13.526;2022-07-23T04:18:39;96413.06;;;22.66;53.94
66479;BME280;53294;47.912;13.526;2022-07-23T04:21:05;96417.28;;;22.59;54.10
66479;BME280;53294;47.912;13.526;2022-07-23T04:23:32;96418.25;;;22.48;55.44
66479;BME280;53294;47.912;13.526;2022-07-23T04:25:59;96425.00;;;22.54;54.68
66479;BME280;53294;47.912;13.526;2022-07-23T04:28:25;96423.13;;;22.58;54.35
66479;BME280;53294;47.912;13.526;2022-07-23T04:30:52;96412.50;;;22.30;55.90
66479;BME280;53294;47.912;13.526;2022-07-23T04:33:19;96402.91;;;22.66;55.72
66479;BME280;53294;47.912;13.526;2022-07-23T04:35:46;96403.94;;;22.85;56.01
66479;BME280;53294;47.912;13.526;2022-07-23T04:38:12;96401.72;;;22.94;56.08
66479;BME280;53294;47.912;13.526;2022-07-23T04:40:39;96409.25;;;23.01;56.04
66479;BME280;53294;47.912;13.526;2022-07-23T04:43:06;96406.72;;;23.15;55.55
66479;BME280;53294;47.912;13.526;2022-07-23T04:45:32;96402.03;;;22.62;56.30
66479;BME280;53294;47.912;13.526;2022-07-23T04:47:59;96398.16;;;22.36;57.57
66479;BME280;53294;47.912;13.526;2022-07-23T04:50:26;96396.94;;;22.34;57.57
66479;BME280;53294;47.912;13.526;2022-07-23T04:52:53;96394.31;;;22.18;58.92
66479;BME280;53294;47.912;13.526;2022-07-23T04:55:20;96404.75;;;21.89;58.75
66479;BME280;53294;47.912;13.526;2022-07-23T04:57:46;96392.97;;;21.85;59.06
66479;BME280;53294;47.912;13.526;2022-07-23T05:00:13;96391.69;;;21.79;60.30
66479;BME280;53294;47.912;13.526;2022-07-23T05:02:40;96383.59;;;21.86;59.89
66479;BME280;53294;47.912;13.526;2022-07-23T05:05:07;96370.38;;;21.88;58.01
66479;BME280;53294;47.912;13.526;2022-07-23T05:07:34;96372.13;;;22.00;57.07
66479;BME280;53294;47.912;13.526;2022-07-23T05:10:00;96380.81;;;22.05;57.18
66479;BME280;53294;47.912;13.526;2022-07-23T05:12:27;96374.84;;;22.23;56.45
66479;BME280;53294;47.912;13.526;2022-07-23T05:14:54;96369.56;;;22.34;55.99
66479;BME280;53294;47.912;13.526;2022-07-23T05:17:20;96367.44;;;22.47;56.10
66479;BME280;53294;47.912;13.526;2022-07-23T05:19:47;96364.47;;;22.59;54.98
66479;BME280;53294;47.912;13.526;2022-07-23T05:22:14;96356.72;;;22.65;55.76
66479;BME280;53294;47.912;13.526;2022-07-23T05:24:40;96360.13;;;22.85;55.70
66479;BME280;53294;47.912;13.526;2022-07-23T05:27:07;96350.06;;;22.92;54.82
66479;BME280;53294;47.912;13.526;2022-07-23T05:29:34;96341.69;;;23.08;56.04
66479;BME280;53294;47.912;13.526;2022-07-23T05:32:01;96346.66;;;23.33;55.29
66479;BME280;53294;47.912;13.526;2022-07-23T05:34:28;96336.59;;;23.44;54.87
66479;BME280;53294;47.912;13.526;2022-07-23T05:36:54;96332.06;;;23.63;54.46
66479;BME280;53294;47.912;13.526;2022-07-23T05:39:21;96325.91;;;23.73;53.80
66479;BME280;53294;47.912;13.526;2022-07-23T05:41:48;96327.03;;;23.65;54.94
66479;BME280;53294;47.912;13.526;2022-07-23T05:44:14;96333.47;;;23.83;55.21
66479;BME280;53294;47.912;13.526;2022-07-23T05:46:41;96328.41;;;23.86;54.30
66479;BME280;53294;47.912;13.526;2022-07-23T05:49:08;96323.31;;;23.88;55.56
66479;BME280;53294;47.912;13.526;2022-07-23T05:51:35;96320.50;;;23.39;54.07
66479;BME280;53294;47.912;13.526;2022-07-23T05:54:02;96329.56;;;23.43;51.61
66479;BME280;53294;47.912;13.526;2022-07-23T05:56:28;96320.84;;;23.34;51.40
66479;BME280;53294;47.912;13.526;2022-07-23T05:58:55;96317.88;;;23.54;51.95
66479;BME280;53294;47.912;13.526;2022-07-23T06:01:22;96322.03;;;23.74;52.46
66479;BME280;53294;47.912;13.526;2022-07-23T06:03:49;96318.59;;;23.84;51.51
66479;BME280;53294;47.912;13.526;2022-07-23T06:06:15;96319.81;;;23.91;52.90
66479;BME280;53294;47.912;13.526;2022-07-23T06:08:42;96314.50;;;24.09;53.40
66479;BME280;53294;47.912;13.526;2022-07-23T06:11:09;96306.28;;;24.12;54.37
66479;BME280;53294;47.912;13.526;2022-07-23T06:13:35;96313.75;;;24.15;52.40
66479;BME280;53294;47.912;13.526;2022-07-23T06:16:02;96316.00;;;24.02;52.04
66479;BME280;53294;47.912;13.526;2022-07-23T06:18:29;96303.47;;;24.01;50.87
66479;BME280;53294;47.912;13.526;2022-07-23T06:20:56;96302.38;;;24.13;52.55
66479;BME280;53294;47.912;13.526;2022-07-23T06:23:26;96296.41;;;24.00;49.80
66479;BME280;53294;47.912;13.526;2022-07-23T06:25:52;96298.50;;;24.18;49.45
66479;BME280;53294;47.912;13.526;2022-07-23T06:28:19;96288.94;;;24.57;50.58
66479;BME280;53294;47.912;13.526;2022-07-23T06:30:46;96275.34;;;24.85;50.37
66479;BME280;53294;47.912;13.526;2022-07-23T06:33:13;96271.50;;;25.08;49.62
66479;BME280;53294;47.912;13.526;2022-07-23T06:35:39;96279.75;;;25.15;49.30
66479;BME280;53294;47.912;13.526;2022-07-23T06:38:06;96271.25;;;25.56;49.44
66479;BME280;53294;47.912;13.526;2022-07-23T06:40:33;96263.78;;;25.71;49.78
66479;BME280;53294;47.912;13.526;2022-07-23T06:43:00;96256.31;;;25.83;50.82
66479;BME280;53294;47.912;13.526;2022-07-23T06:45:27;96257.13;;;26.05;49.79
66479;BME280;53294;47.912;13.526;2022-07-23T06:47:53;96255.53;;;26.18;49.63
66479;BME280;53294;47.912;13.526;2022-07-23T06:50:20;96258.66;;;26.24;47.42
66479;BME280;53294;47.912;13.526;2022-07-23T06:52:47;96256.31;;;26.22;47.13
66479;BME280;53294;47.912;13.526;2022-07-23T06:55:14;96259.06;;;25.86;45.57
66479;BME280;53294;47.912;13.526;2022-07-23T06:57:41;96250.03;;;25.75;47.84
66479;BME280;53294;47.912;13.526;2022-07-23T07:00:08;96246.09;;;25.76;48.02
66479;BME280;53294;47.912;13.526;2022-07-23T07:02:35;96243.72;;;25.85;46.83
66479;BME280;53294;47.912;13.526;2022-07-23T07:05:02;96251.97;;;25.49;46.83
66479;BME280;53294;47.912;13.526;2022-07-23T07:07:33;96249.16;;;25.13;47.29
66479;BME280;53294;47.912;13.526;2022-07-23T07:10:00;96248.81;;;25.40;46.72
66479;BME280;53294;47.912;13.526;2022-07-23T07:12:26;96257.06;;;25.40;46.18
66479;BME280;53294;47.912;13.526;2022-07-23T07:14:54;96244.53;;;25.68;46.44
66479;BME280;53294;47.912;13.526;2022-07-23T07:17:20;96252.78;;;25.82;45.46
66479;BME280;53294;47.912;13.526;2022-07-23T07:19:47;96255.91;;;25.70;45.38
66479;BME280;53294;47.912;13.526;2022-07-23T07:22:14;96255.91;;;25.55;45.91
66479;BME280;53294;47.912;13.526;2022-07-23T07:24:40;96259.44;;;25.38;45.34
66479;BME280;53294;47.912;13.526;2022-07-23T07:27:07;96247.53;;;24.98;44.52
66479;BME280;53294;47.912;13.526;2022-07-23T07:29:34;96248.22;;;24.73;45.13
66479;BME280;53294;47.912;13.526;2022-07-23T07:32:00;96244.34;;;24.81;45.41
66479;BME280;53294;47.912;13.526;2022-07-23T07:34:27;96241.28;;;25.08;46.54
66479;BME280;53294;47.912;13.526;2022-07-23T07:36:53;96240.50;;;25.04;45.90
66479;BME280;53294;47.912;13.526;2022-07-23T07:39:20;96231.78;;;24.84;45.42
66479;BME280;53294;47.912;13.526;2022-07-23T07:41:47;96232.94;;;24.76;44.64
66479;BME280;53294;47.912;13.526;2022-07-23T07:44:14;96223.94;;;24.86;45.97
66479;BME280;53294;47.912;13.526;2022-07-23T07:46:40;96228.00;;;25.32;45.07
66479;BME280;53294;47.912;13.526;2022-07-23T07:49:07;96225.59;;;25.23;45.06
66479;BME280;53294;47.912;13.526;2022-07-23T07:51:41;96224.88;;;25.30;44.69
66479;BME280;53294;47.912;13.526;2022-07-23T07:54:11;96236.66;;;25.41;46.10
66479;BME280;53294;47.912;13.526;2022-07-23T07:56:38;96236.69;;;25.52;44.92
66479;BME280;53294;47.912;13.526;2022-07-23T07:59:06;96238.22;;;25.63;45.13
66479;BME280;53294;47.912;13.526;2022-07-23T08:01:33;96246.50;;;25.71;45.04
66479;BME280;53294;47.912;13.526;2022-07-23T08:03:59;96252.38;;;25.94;45.29
66479;BME280;53294;47.912;13.526;2022-07-23T08:06:27;96253.56;;;26.11;44.66
66479;BME280;53294;47.912;13.526;2022-07-23T08:08:53;96252.78;;;26.18;44.80
66479;BME280;53294;47.912;13.526;2022-07-23T08:11:20;96257.13;;;26.05;45.40
66479;BME280;53294;47.912;13.526;2022-07-23T08:13:47;96246.06;;;26.26;46.08
66479;BME280;53294;47.912;13.526;2022-07-23T08:16:14;96248.44;;;26.24;46.32
66479;BME280;53294;47.912;13.526;2022-07-23T08:18:41;96248.38;;;26.46;46.26
66479;BME280;53294;47.912;13.526;2022-07-23T08:21:08;96258.22;;;26.43;44.00
66479;BME280;53294;47.912;13.526;2022-07-23T08:23:34;96262.50;;;26.55;45.27
66479;BME280;53294;47.912;13.526;2022-07-23T08:26:02;96264.09;;;26.56;45.46
66479;BME280;53294;47.912;13.526;2022-07-23T08:28:28;96273.91;;;26.68;45.50
66479;BME280;53294;47.912;13.526;2022-07-23T08:30:55;96274.25;;;26.81;45.62
66479;BME280;53294;47.912;13.526;2022-07-23T08:33:22;96279.69;;;27.02;45.25
66479;BME280;53294;47.912;13.526;2022-07-23T08:36:02;96284.69;;;27.22;44.88
66479;BME280;53294;47.912;13.526;2022-07-23T08:38:31;96287.09;;;27.13;44.34
66479;BME280;53294;47.912;13.526;2022-07-23T08:40:58;96293.72;;;27.26;44.43
66479;BME280;53294;47.912;13.526;2022-07-23T08:43:28;96301.97;;;27.37;44.98
66479;BME280;53294;47.912;13.526;2022-07-23T08:45:56;96313.38;;;27.43;45.13
66479;BME280;53294;47.912;13.526;2022-07-23T08:48:28;96301.88;;;27.55;45.10
66479;BME280;53294;47.912;13.526;2022-07-23T08:50:58;96301.41;;;27.67;45.06
66479;BME280;53294;47.912;13.526;2022-07-23T08:53:28;96305.72;;;27.68;44.69
66479;BME280;53294;47.912;13.526;2022-07-23T08:55:57;96303.34;;;27.70;45.12
66479;BME280;53294;47.912;13.526;2022-07-23T08:58:25;96302.78;;;27.90;44.19
66479;BME280;53294;47.912;13.526;2022-07-23T09:00:54;96307.47;;;28.00;44.44
66479;BME280;53294;47.912;13.526;2022-07-23T09:03:25;96298.31;;;28.10;45.29
66479;BME280;53294;47.912;13.526;2022-07-23T09:05:53;96303.06;;;28.10;45.48
66479;BME280;53294;47.912;13.526;2022-07-23T09:08:23;96316.81;;;28.14;45.13
66479;BME280;53294;47.912;13.526;2022-07-23T09:10:58;96304.03;;;28.30;44.62
66479;BME280;53294;47.912;13.526;2022-07-23T09:13:33;96311.50;;;28.37;44.81
66479;BME280;53294;47.912;13.526;2022-07-23T09:16:07;96306.13;;;28.19;45.65
66479;BME280;53294;47.912;13.526;2022-07-23T09:26:24;96309.09;;;28.81;41.54
66479;BME280;53294;47.912;13.526;2022-07-23T09:31:50;96299.88;;;29.26;40.72
66479;BME280;53294;47.912;13.526;2022-07-23T09:34:22;96304.00;;;29.41;39.63
66479;BME280;53294;47.912;13.526;2022-07-23T09:36:51;96294.38;;;29.80;39.68
66479;BME280;53294;47.912;13.526;2022-07-23T09:39:32;96288.84;;;29.80;40.03
66479;BME280;53294;47.912;13.526;2022-07-23T09:42:15;96292.03;;;29.75;39.73
66479;BME280;53294;47.912;13.526;2022-07-23T09:44:47;96300.25;;;29.28;39.29
66479;BME280;53294;47.912;13.526;2022-07-23T09:47:15;96295.13;;;29.53;38.26
66479;BME280;53294;47.912;13.526;2022-07-23T09:52:29;96284.34;;;29.35;40.43
66479;BME280;53294;47.912;13.526;2022-07-23T09:55:03;96285.28;;;29.52;41.05
66479;BME280;53294;47.912;13.526;2022-07-23T09:57:31;96284.88;;;28.92;38.09
66479;BME280;53294;47.912;13.526;2022-07-23T10:00:01;96293.59;;;28.53;40.04
66479;BME280;53294;47.912;13.526;2022-07-23T10:02:32;96291.19;;;28.55;39.94
66479;BME280;53294;47.912;13.526;2022-07-23T10:05:01;96289.72;;;28.46;41.83
66479;BME280;53294;47.912;13.526;2022-07-23T10:07:31;96286.44;;;28.59;40.33
66479;BME280;53294;47.912;13.526;2022-07-23T10:10:00;96287.81;;;28.74;40.64
66479;BME280;53294;47.912;13.526;2022-07-23T10:12:27;96277.28;;;29.00;40.26
66479;BME280;53294;47.912;13.526;2022-07-23T10:14:59;96286.31;;;28.70;39.34
66479;BME280;53294;47.912;13.526;2022-07-23T10:17:29;96281.84;;;28.45;41.49
66479;BME280;53294;47.912;13.526;2022-07-23T10:19:56;96278.84;;;28.67;40.52
66479;BME280;53294;47.912;13.526;2022-07-23T10:22:26;96282.09;;;28.92;41.28
66479;BME280;53294;47.912;13.526;2022-07-23T10:33:41;96305.38;;;28.95;40.53
66479;BME280;53294;47.912;13.526;2022-07-23T10:36:32;96305.00;;;28.55;40.40
66479;BME280;53294;47.912;13.526;2022-07-23T10:39:05;96303.22;;;28.75;40.63
66479;BME280;53294;47.912;13.526;2022-07-23T10:41:38;96301.88;;;28.91;40.80
66479;BME280;53294;47.912;13.526;2022-07-23T10:49:43;96314.50;;;29.53;40.80
66479;BME280;53294;47.912;13.526;2022-07-23T10:54:40;96328.13;;;29.95;40.36
66479;BME280;53294;47.912;13.526;2022-07-23T10:57:07;96318.25;;;29.67;36.71
66479;BME280;53294;47.912;13.526;2022-07-23T11:02:37;96328.81;;;30.03;37.18
66479;BME280;53294;47.912;13.526;2022-07-23T11:05:06;96326.63;;;29.90;37.69
66479;BME280;53294;47.912;13.526;2022-07-23T11:07:35;96323.72;;;29.70;37.45
66479;BME280;53294;47.912;13.526;2022-07-23T11:10:03;96321.88;;;29.91;37.35
66479;BME280;53294;47.912;13.526;2022-07-23T11:17:24;96309.97;;;30.85;33.92
66479;BME280;53294;47.912;13.526;2022-07-23T11:22:41;96300.59;;;31.19;33.01
66479;BME280;53294;47.912;13.526;2022-07-23T11:27:50;96301.69;;;31.42;32.71
66479;BME280;53294;47.912;13.526;2022-07-23T11:30:46;96303.84;;;31.71;31.62
66479;BME280;53294;47.912;13.526;2022-07-23T11:35:42;96299.53;;;32.02;32.31
66479;BME280;53294;47.912;13.526;2022-07-23T11:38:17;96300.19;;;32.07;32.30
66479;BME280;53294;47.912;13.526;2022-07-23T11:40:55;96291.78;;;32.27;34.15
66479;BME280;53294;47.912;13.526;2022-07-23T11:43:25;96296.94;;;32.57;31.67
66479;BME280;53294;47.912;13.526;2022-07-23T11:45:56;96294.13;;;32.45;31.08
66479;BME280;53294;47.912;13.526;2022-07-23T11:48:28;96297.78;;;32.42;32.82
66479;BME280;53294;47.912;13.526;2022-07-23T11:50:56;96285.22;;;32.66;30.94
66479;BME280;53294;47.912;13.526;2022-07-23T11:53:30;96290.06;;;32.79;30.99
66479;BME280;53294;47.912;13.526;2022-07-23T11:56:08;96293.72;;;32.76;30.07
66479;BME280;53294;47.912;13.526;2022-07-23T11:58:37;96288.50;;;32.90;30.11
66479;BME280;53294;47.912;13.526;2022-07-23T12:01:04;96283.47;;;33.15;30.52
66479;BME280;53294;47.912;13.526;2022-07-23T12:03:31;96277.81;;;33.31;29.54
66479;BME280;53294;47.912;13.526;2022-07-23T12:05:59;96267.81;;;33.46;30.21
66479;BME280;53294;47.912;13.526;2022-07-23T12:08:26;96265.84;;;33.47;29.02
66479;BME280;53294;47.912;13.526;2022-07-23T12:10:53;96264.50;;;33.52;27.52
66479;BME280;53294;47.912;13.526;2022-07-23T12:13:20;96262.34;;;33.56;27.56
66479;BME280;53294;47.912;13.526;2022-07-23T12:15:53;96263.59;;;33.29;28.41
66479;BME280;53294;47.912;13.526;2022-07-23T12:18:23;96264.03;;;33.40;28.18
66479;BME280;53294;47.912;13.526;2022-07-23T12:20:52;96263.19;;;33.14;28.53
66479;BME280;53294;47.912;13.526;2022-07-23T12:23:21;96273.22;;;32.99;28.77
66479;BME280;53294;47.912;13.526;2022-07-23T12:25:50;96277.56;;;32.70;30.16
66479;BME280;53294;47.912;13.526;2022-07-23T12:28:19;96268.16;;;32.81;29.77
66479;BME280;53294;47.912;13.526;2022-07-23T12:30:51;96261.53;;;33.17;31.30
66479;BME280;53294;47.912;13.526;2022-07-23T12:33:26;96268.38;;;33.41;30.47
66479;BME280;53294;47.912;13.526;2022-07-23T12:35:56;96269.50;;;33.44;29.24
66479;BME280;53294;47.912;13.526;2022-07-23T12:38:25;96265.38;;;33.49;29.85
66479;BME280;53294;47.912;13.526;2022-07-23T12:40:59;96260.81;;;33.68;30.38
66479;BME280;53294;47.912;13.526;2022-07-23T12:43:31;96255.22;;;33.93;29.34
66479;BME280;53294;47.912;13.526;2022-07-23T12:46:05;96258.41;;;34.17;28.20
66479;BME280;53294;47.912;13.526;2022-07-23T12:48:38;96262.00;;;34.05;28.89
66479;BME280;53294;47.912;13.526;2022-07-23T12:51:06;96259.88;;;33.96;27.76
66479;BME280;53294;47.912;13.526;2022-07-23T12:53:37;96261.97;;;34.31;27.92
66479;BME280;53294;47.912;13.526;2022-07-23T12:56:08;96253.41;;;33.99;28.62
66479;BME280;53294;47.912;13.526;2022-07-23T12:58:45;96258.28;;;33.73;26.54
66479;BME280;53294;47.912;13.526;2022-07-23T13:04:14;96255.53;;;33.05;28.95
66479;BME280;53294;47.912;13.526;2022-07-23T13:09:17;96261.97;;;33.02;28.65
66479;BME280;53294;47.912;13.526;2022-07-23T13:11:46;96262.25;;;33.21;29.90
66479;BME280;53294;47.912;13.526;2022-07-23T13:14:14;96264.41;;;33.00;29.21
66479;BME280;53294;47.912;13.526;2022-07-23T13:16:41;96263.09;;;33.05;29.86
66479;BME280;53294;47.912;13.526;2022-07-23T13:19:08;96250.22;;;33.24;28.39
66479;BME280;53294;47.912;13.526;2022-07-23T13:21:55;96249.19;;;33.18;28.59
66479;BME280;53294;47.912;13.526;2022-07-23T13:24:22;96255.44;;;33.22;28.81
66479;BME280;53294;47.912;13.526;2022-07-23T13:26:49;96256.03;;;33.42;30.22
66479;BME280;53294;47.912;13.526;2022-07-23T13:29:18;96248.00;;;33.44;29.96
66479;BME280;53294;47.912;13.526;2022-07-23T13:31:46;96253.69;;;33.54;29.76
66479;BME280;53294;47.912;13.526;2022-07-23T13:34:14;96250.69;;;33.61;29.57
66479;BME280;53294;47.912;13.526;2022-07-23T13:36:41;96243.66;;;33.43;29.02
66479;BME280;53294;47.912;13.526;2022-07-23T13:39:10;96252.78;;;33.31;28.95
66479;BME280;53294;47.912;13.526;2022-07-23T13:41:38;96257.25;;;33.28;29.90
66479;BME280;53294;47.912;13.526;2022-07-23T13:44:05;96253.22;;;33.30;30.19
66479;BME280;53294;47.912;13.526;2022-07-23T13:46:33;96260.59;;;33.36;30.11